sensor_id;sensor_type;location;lat;lon;timestamp;P1;durP1;ratioP1;P2;durP2;ratioP2
20906;SDS011;10613;50.966;5.814;2023-12-20T00:02:13;15.00;;;12.00;;
20906;SDS011;10613;50.966;5.814;2023-12-20T00:06:20;11.00;;;8.75;;
20906;SDS011;10613;50.966;5.814;2023-12-20T00:10:27;10.00;;;10.00;;
20906;SDS011;10613;50.966;5.814;2023-12-20T00:14:39;8.75;;;8.75;;
20906;SDS011;10613;50.966;5.814;2023-12-20T00:18:48;11.00;;;9.00;;
20906;SDS011;10613;50.966;5.814;2023-12-20T00:22:58;8.25;;;7.00;;
20906;SDS011;10613;50.966;5.814;2023-12-20T00:27:13;8.00;;;8.00;;
20906;SDS011;10613;50.966;5.814;2023-12-20T00:31:22;8.00;;;6.00;;
20906;SDS011;10613;50.966;5.814;2023-12-20T00:35:29;4.00;;;4.00;;
20906;SDS011;10613;50.966;5.814;2023-12-20T00:39:36;6.00;;;6.00;;
20906;SDS011;10613;50.966;5.814;2023-12-20T00:43:43;3.75;;;3.75;;
20906;SDS011;10613;50.966;5.814;2023-12-20T00:47:51;3.25;;;3.25;;
20906;SDS011;10613;50.966;5.814;2023-12-20T00:51:58;5.25;;;5.25;;
20906;SDS011;10613;50.966;5.814;2023-12-20T00:56:05;6.00;;;6.00;;
20906;SDS011;10613;50.966;5.814;2023-12-20T01:00:12;5.00;;;5.00;;
20906;SDS011;10613;50.966;5.814;2023-12-20T01:04:20;4.75;;;4.00;;
20906;SDS011;10613;50.966;5.814;2023-12-20T01:08:27;3.25;;;3.25;;
20906;SDS011;10613;50.966;5.814;2023-12-20T01:12:35;4.75;;;3.00;;
20906;SDS011;10613;50.966;5.814;2023-12-20T01:16:42;3.50;;;3.50;;
20906;SDS011;10613;50.966;5.814;2023-12-20T01:20:49;3.00;;;3.00;;
20906;SDS011;10613;50.966;5.814;2023-12-20T01:24:56;2.75;;;2.00;;
20906;SDS011;10613;50.966;5.814;2023-12-20T01:29:03;4.75;;;3.50;;
20906;SDS011;10613;50.966;5.814;2023-12-20T01:33:10;3.25;;;3.25;;
20906;SDS011;10613;50.966;5.814;2023-12-20T01:37:17;3.00;;;3.00;;
20906;SDS011;10613;50.966;5.814;2023-12-20T01:41:24;4.50;;;4.50;;
20906;SDS011;10613;50.966;5.814;2023-12-20T01:45:31;3.00;;;3.00;;
20906;SDS011;10613;50.966;5.814;2023-12-20T01:49:38;3.00;;;3.00;;
20906;SDS011;10613;50.966;5.814;2023-12-20T01:53:45;3.25;;;3.25;;
20906;SDS011;10613;50.966;5.814;2023-12-20T01:57:52;3.00;;;3.00;;
20906;SDS011;10613;50.966;5.814;2023-12-20T02:01:59;6.00;;;1.00;;
20906;SDS011;10613;50.966;5.814;2023-12-20T02:06:06;4.50;;;3.00;;
20906;SDS011;10613;50.966;5.814;2023-12-20T02:10:14;3.00;;;3.00;;
20906;SDS011;10613;50.966;5.814;2023-12-20T02:14:22;3.00;;;3.00;;
20906;SDS011;10613;50.966;5.814;2023-12-20T02:18:29;3.00;;;3.00;;
20906;SDS011;10613;50.966;5.814;2023-12-20T02:22:36;5.75;;;4.50;;
20906;SDS011;10613;50.966;5.814;2023-12-20T02:26:43;8.00;;;4.75;;
20906;SDS011;10613;50.966;5.814;2023-12-20T02:30:57;4.25;;;4.00;;
20906;SDS011;10613;50.966;5.814;2023-12-20T02:35:04;6.50;;;5.00;;
20906;SDS011;10613;50.966;5.814;2023-12-20T02:39:11;5.25;;;5.25;;
20906;SDS011;10613;50.966;5.814;2023-12-20T02:43:18;5.25;;;3.25;;
20906;SDS011;10613;50.966;5.814;2023-12-20T02:47:25;3.50;;;3.50;;
20906;SDS011;10613;50.966;5.814;2023-12-20T02:51:32;5.75;;;3.00;;
20906;SDS011;10613;50.966;5.814;2023-12-20T02:55:39;4.25;;;4.00;;
20906;SDS011;10613;50.966;5.814;2023-12-20T03:00:12;5.00;;;4.00;;
20906;SDS011;10613;50.966;5.814;2023-12-20T03:04:26;4.00;;;4.00;;
20906;SDS011;10613;50.966;5.814;2023-12-20T03:08:33;3.50;;;3.00;;
20906;SDS011;10613;50.966;5.814;2023-12-20T03:12:40;5.00;;;4.00;;
20906;SDS011;10613;50.966;5.814;2023-12-20T03:16:50;8.00;;;6.00;;
20906;SDS011;10613;50.966;5.814;2023-12-20T03:20:57;5.00;;;5.00;;
20906;SDS011;10613;50.966;5.814;2023-12-20T03:25:04;6.00;;;6.00;;
20906;SDS011;10613;50.966;5.814;2023-12-20T03:29:11;5.00;;;5.00;;
20906;SDS011;10613;50.966;5.814;2023-12-20T03:33:18;5.25;;;3.50;;
20906;SDS011;10613;50.966;5.814;2023-12-20T03:37:25;6.00;;;5.75;;
20906;SDS011;10613;50.966;5.814;2023-12-20T03:41:32;5.00;;;5.00;;
20906;SDS011;10613;50.966;5.814;2023-12-20T03:45:39;3.25;;;3.25;;
20906;SDS011;10613;50.966;5.814;2023-12-20T03:49:46;5.25;;;4.50;;
20906;SDS011;10613;50.966;5.814;2023-12-20T03:53:53;5.00;;;5.00;;
20906;SDS011;10613;50.966;5.814;2023-12-20T03:58:07;5.00;;;5.00;;
20906;SDS011;10613;50.966;5.814;2023-12-20T04:02:14;3.00;;;3.00;;
20906;SDS011;10613;50.966;5.814;2023-12-20T04:06:21;6.00;;;5.75;;
20906;SDS011;10613;50.966;5.814;2023-12-20T04:10:28;5.00;;;4.00;;
20906;SDS011;10613;50.966;5.814;2023-12-20T04:14:35;5.00;;;5.00;;
20906;SDS011;10613;50.966;5.814;2023-12-20T04:18:42;8.00;;;6.00;;
20906;SDS011;10613;50.966;5.814;2023-12-20T04:22:56;6.00;;;5.75;;
20906;SDS011;10613;50.966;5.814;2023-12-20T04:27:03;5.00;;;5.00;;
20906;SDS011;10613;50.966;5.814;2023-12-20T04:31:10;5.25;;;5.00;;
20906;SDS011;10613;50.966;5.814;2023-12-20T04:35:17;3.00;;;3.00;;
20906;SDS011;10613;50.966;5.814;2023-12-20T04:39:24;3.00;;;3.00;;
20906;SDS011;10613;50.966;5.814;2023-12-20T04:43:31;6.00;;;6.00;;
20906;SDS011;10613;50.966;5.814;2023-12-20T04:47:38;5.75;;;5.00;;
20906;SDS011;10613;50.966;5.814;2023-12-20T04:51:45;5.00;;;5.00;;
20906;SDS011;10613;50.966;5.814;2023-12-20T04:55:52;5.00;;;5.00;;
20906;SDS011;10613;50.966;5.814;2023-12-20T04:59:59;3.00;;;3.00;;
20906;SDS011;10613;50.966;5.814;2023-12-20T05:04:06;8.50;;;5.25;;
20906;SDS011;10613;50.966;5.814;2023-12-20T05:08:13;5.00;;;5.00;;
20906;SDS011;10613;50.966;5.814;2023-12-20T05:12:20;5.00;;;5.00;;
20906;SDS011;10613;50.966;5.814;2023-12-20T05:16:27;7.25;;;5.00;;
20906;SDS011;10613;50.966;5.814;2023-12-20T05:20:34;7.50;;;3.50;;
20906;SDS011;10613;50.966;5.814;2023-12-20T05:24:41;5.50;;;5.50;;
20906;SDS011;10613;50.966;5.814;2023-12-20T05:28:48;3.50;;;3.50;;
20906;SDS011;10613;50.966;5.814;2023-12-20T05:32:55;7.50;;;5.50;;
20906;SDS011;10613;50.966;5.814;2023-12-20T05:37:02;3.00;;;3.00;;
20906;SDS011;10613;50.966;5.814;2023-12-20T05:41:09;5.00;;;5.00;;
20906;SDS011;10613;50.966;5.814;2023-12-20T05:45:16;7.50;;;5.75;;
20906;SDS011;10613;50.966;5.814;2023-12-20T05:49:23;7.00;;;5.50;;
20906;SDS011;10613;50.966;5.814;2023-12-20T05:53:30;5.75;;;5.75;;
20906;SDS011;10613;50.966;5.814;2023-12-20T05:57:37;7.00;;;7.00;;
20906;SDS011;10613;50.966;5.814;2023-12-20T06:01:44;5.00;;;5.00;;
20906;SDS011;10613;50.966;5.814;2023-12-20T06:05:51;5.25;;;5.25;;
20906;SDS011;10613;50.966;5.814;2023-12-20T06:09:58;5.75;;;5.75;;
20906;SDS011;10613;50.966;5.814;2023-12-20T06:14:05;5.50;;;5.50;;
20906;SDS011;10613;50.966;5.814;2023-12-20T06:18:12;5.00;;;5.00;;
20906;SDS011;10613;50.966;5.814;2023-12-20T06:22:19;5.00;;;5.00;;
20906;SDS011;10613;50.966;5.814;2023-12-20T06:26:26;5.00;;;5.00;;
20906;SDS011;10613;50.966;5.814;2023-12-20T06:30:33;5.00;;;5.00;;
20906;SDS011;10613;50.966;5.814;2023-12-20T06:34:40;8.00;;;5.50;;
20906;SDS011;10613;50.966;5.814;2023-12-20T06:38:47;3.00;;;3.00;;
20906;SDS011;10613;50.966;5.814;2023-12-20T06:42:54;5.75;;;5.75;;
20906;SDS011;10613;50.966;5.814;2023-12-20T06:47:01;6.00;;;6.00;;
20906;SDS011;10613;50.966;5.814;2023-12-20T06:51:11;5.00;;;5.00;;
20906;SDS011;10613;50.966;5.814;2023-12-20T06:55:18;4.50;;;4.50;;
20906;SDS011;10613;50.966;5.814;2023-12-20T06:59:25;6.00;;;6.00;;
20906;SDS011;10613;50.966;5.814;2023-12-20T07:03:32;8.00;;;8.00;;
20906;SDS011;10613;50.966;5.814;2023-12-20T07:07:39;6.00;;;5.00;;
20906;SDS011;10613;50.966;5.814;2023-12-20T07:11:46;5.00;;;5.00;;
20906;SDS011;10613;50.966;5.814;2023-12-20T07:15:53;8.00;;;8.00;;
20906;SDS011;10613;50.966;5.814;2023-12-20T07:20:00;8.50;;;8.50;;
20906;SDS011;10613;50.966;5.814;2023-12-20T07:24:10;5.75;;;5.75;;
20906;SDS011;10613;50.966;5.814;2023-12-20T07:28:17;3.00;;;3.00;;
20906;SDS011;10613;50.966;5.814;2023-12-20T07:32:24;4.00;;;3.00;;
20906;SDS011;10613;50.966;5.814;2023-12-20T07:36:31;5.75;;;5.75;;
20906;SDS011;10613;50.966;5.814;2023-12-20T07:40:38;4.50;;;4.50;;
20906;SDS011;10613;50.966;5.814;2023-12-20T07:44:45;8.00;;;6.00;;
20906;SDS011;10613;50.966;5.814;2023-12-20T07:48:52;6.00;;;5.50;;
20906;SDS011;10613;50.966;5.814;2023-12-20T07:52:59;6.00;;;5.75;;
20906;SDS011;10613;50.966;5.814;2023-12-20T07:57:07;3.50;;;3.50;;
20906;SDS011;10613;50.966;5.814;2023-12-20T08:01:15;6.00;;;6.00;;
20906;SDS011;10613;50.966;5.814;2023-12-20T08:05:22;5.50;;;5.50;;
20906;SDS011;10613;50.966;5.814;2023-12-20T08:09:29;6.00;;;5.25;;
20906;SDS011;10613;50.966;5.814;2023-12-20T08:13:36;9.50;;;5.00;;
20906;SDS011;10613;50.966;5.814;2023-12-20T08:17:43;5.50;;;4.50;;
20906;SDS011;10613;50.966;5.814;2023-12-20T08:21:57;8.50;;;5.00;;
20906;SDS011;10613;50.966;5.814;2023-12-20T08:26:07;5.00;;;5.00;;
20906;SDS011;10613;50.966;5.814;2023-12-20T08:30:14;5.00;;;5.00;;
20906;SDS011;10613;50.966;5.814;2023-12-20T08:34:23;6.50;;;5.50;;
20906;SDS011;10613;50.966;5.814;2023-12-20T08:38:30;6.00;;;6.00;;
20906;SDS011;10613;50.966;5.814;2023-12-20T08:42:37;5.25;;;5.25;;
20906;SDS011;10613;50.966;5.814;2023-12-20T08:46:44;4.00;;;4.00;;
20906;SDS011;10613;50.966;5.814;2023-12-20T08:50:51;6.00;;;4.00;;
20906;SDS011;10613;50.966;5.814;2023-12-20T08:54:58;5.00;;;5.00;;
20906;SDS011;10613;50.966;5.814;2023-12-20T08:59:05;5.50;;;5.50;;
20906;SDS011;10613;50.966;5.814;2023-12-20T09:03:12;4.00;;;4.00;;
20906;SDS011;10613;50.966;5.814;2023-12-20T09:07:26;5.75;;;5.75;;
20906;SDS011;10613;50.966;5.814;2023-12-20T09:11:33;5.00;;;5.00;;
20906;SDS011;10613;50.966;5.814;2023-12-20T09:15:41;5.00;;;5.00;;
20906;SDS011;10613;50.966;5.814;2023-12-20T09:19:48;3.00;;;3.00;;
20906;SDS011;10613;50.966;5.814;2023-12-20T09:23:54;6.00;;;6.00;;
20906;SDS011;10613;50.966;5.814;2023-12-20T09:28:01;5.00;;;5.00;;
20906;SDS011;10613;50.966;5.814;2023-12-20T09:32:08;6.00;;;6.00;;
20906;SDS011;10613;50.966;5.814;2023-12-20T09:36:15;5.00;;;5.00;;
20906;SDS011;10613;50.966;5.814;2023-12-20T09:40:22;5.00;;;5.00;;
20906;SDS011;10613;50.966;5.814;2023-12-20T09:44:32;8.00;;;8.00;;
20906;SDS011;10613;50.966;5.814;2023-12-20T09:48:43;11.00;;;5.00;;
20906;SDS011;10613;50.966;5.814;2023-12-20T09:52:51;5.00;;;5.00;;
20906;SDS011;10613;50.966;5.814;2023-12-20T09:56:58;4.50;;;4.50;;
20906;SDS011;10613;50.966;5.814;2023-12-20T10:01:06;6.00;;;4.50;;
20906;SDS011;10613;50.966;5.814;2023-12-20T10:05:15;4.00;;;4.00;;
20906;SDS011;10613;50.966;5.814;2023-12-20T10:09:22;3.00;;;3.00;;
20906;SDS011;10613;50.966;5.814;2023-12-20T10:13:30;5.75;;;5.75;;
20906;SDS011;10613;50.966;5.814;2023-12-20T10:17:37;10.00;;;8.00;;
20906;SDS011;10613;50.966;5.814;2023-12-20T10:21:45;6.00;;;6.00;;
20906;SDS011;10613;50.966;5.814;2023-12-20T10:25:59;5.75;;;5.00;;
20906;SDS011;10613;50.966;5.814;2023-12-20T10:30:07;10.00;;;6.50;;
20906;SDS011;10613;50.966;5.814;2023-12-20T10:34:14;4.75;;;4.25;;
20906;SDS011;10613;50.966;5.814;2023-12-20T10:38:21;5.25;;;4.00;;
20906;SDS011;10613;50.966;5.814;2023-12-20T10:42:29;3.00;;;3.00;;
20906;SDS011;10613;50.966;5.814;2023-12-20T10:46:36;5.75;;;5.75;;
20906;SDS011;10613;50.966;5.814;2023-12-20T10:50:44;5.00;;;5.00;;
20906;SDS011;10613;50.966;5.814;2023-12-20T10:54:51;6.50;;;6.50;;
20906;SDS011;10613;50.966;5.814;2023-12-20T10:58:58;5.00;;;5.00;;
20906;SDS011;10613;50.966;5.814;2023-12-20T11:03:08;4.00;;;3.00;;
20906;SDS011;10613;50.966;5.814;2023-12-20T11:11:31;6.00;;;6.00;;
20906;SDS011;10613;50.966;5.814;2023-12-20T11:15:41;5.75;;;5.75;;
20906;SDS011;10613;50.966;5.814;2023-12-20T11:24:04;5.00;;;5.00;;
20906;SDS011;10613;50.966;5.814;2023-12-20T11:28:12;5.00;;;5.00;;
20906;SDS011;10613;50.966;5.814;2023-12-20T11:36:32;5.00;;;5.00;;
20906;SDS011;10613;50.966;5.814;2023-12-20T11:40:39;9.50;;;7.50;;
20906;SDS011;10613;50.966;5.814;2023-12-20T11:44:48;6.50;;;6.00;;
20906;SDS011;10613;50.966;5.814;2023-12-20T11:48:55;5.50;;;5.50;;
20906;SDS011;10613;50.966;5.814;2023-12-20T11:53:02;5.00;;;5.00;;
20906;SDS011;10613;50.966;5.814;2023-12-20T11:57:09;10.00;;;8.00;;
20906;SDS011;10613;50.966;5.814;2023-12-20T12:01:16;8.00;;;8.00;;
20906;SDS011;10613;50.966;5.814;2023-12-20T12:05:30;4.50;;;4.50;;
20906;SDS011;10613;50.966;5.814;2023-12-20T12:09:38;3.50;;;3.50;;
20906;SDS011;10613;50.966;5.814;2023-12-20T12:13:45;4.50;;;4.50;;
20906;SDS011;10613;50.966;5.814;2023-12-20T12:17:55;6.00;;;5.25;;
20906;SDS011;10613;50.966;5.814;2023-12-20T12:22:07;10.00;;;6.00;;
20906;SDS011;10613;50.966;5.814;2023-12-20T12:26:16;4.50;;;4.50;;
20906;SDS011;10613;50.966;5.814;2023-12-20T12:30:23;12.00;;;6.00;;
20906;SDS011;10613;50.966;5.814;2023-12-20T12:34:30;5.75;;;5.75;;
20906;SDS011;10613;50.966;5.814;2023-12-20T12:38:37;9.00;;;5.00;;
20906;SDS011;10613;50.966;5.814;2023-12-20T12:42:44;5.75;;;5.25;;
20906;SDS011;10613;50.966;5.814;2023-12-20T12:46:51;5.25;;;5.25;;
20906;SDS011;10613;50.966;5.814;2023-12-20T12:51:00;5.00;;;5.00;;
20906;SDS011;10613;50.966;5.814;2023-12-20T12:55:07;5.00;;;5.00;;
20906;SDS011;10613;50.966;5.814;2023-12-20T12:59:14;5.25;;;5.25;;
20906;SDS011;10613;50.966;5.814;2023-12-20T13:03:21;5.50;;;5.00;;
20906;SDS011;10613;50.966;5.814;2023-12-20T13:07:28;5.50;;;5.50;;
20906;SDS011;10613;50.966;5.814;2023-12-20T13:11:35;5.00;;;5.00;;
20906;SDS011;10613;50.966;5.814;2023-12-20T13:15:42;5.50;;;5.50;;
20906;SDS011;10613;50.966;5.814;2023-12-20T13:19:49;8.00;;;8.00;;
20906;SDS011;10613;50.966;5.814;2023-12-20T13:23:56;6.00;;;5.50;;
20906;SDS011;10613;50.966;5.814;2023-12-20T13:28:03;5.75;;;5.75;;
20906;SDS011;10613;50.966;5.814;2023-12-20T13:32:10;6.00;;;6.00;;
20906;SDS011;10613;50.966;5.814;2023-12-20T13:36:17;5.00;;;5.00;;
20906;SDS011;10613;50.966;5.814;2023-12-20T13:40:24;5.00;;;5.00;;
20906;SDS011;10613;50.966;5.814;2023-12-20T13:44:38;8.50;;;7.00;;
20906;SDS011;10613;50.966;5.814;2023-12-20T13:48:45;8.00;;;6.00;;
20906;SDS011;10613;50.966;5.814;2023-12-20T13:52:52;7.50;;;7.50;;
20906;SDS011;10613;50.966;5.814;2023-12-20T13:56:59;5.25;;;5.25;;
20906;SDS011;10613;50.966;5.814;2023-12-20T14:01:06;4.00;;;4.00;;
20906;SDS011;10613;50.966;5.814;2023-12-20T14:05:13;5.00;;;5.00;;
20906;SDS011;10613;50.966;5.814;2023-12-20T14:09:24;5.00;;;5.00;;
20906;SDS011;10613;50.966;5.814;2023-12-20T14:13:31;5.25;;;5.25;;
20906;SDS011;10613;50.966;5.814;2023-12-20T14:17:38;5.75;;;5.00;;
20906;SDS011;10613;50.966;5.814;2023-12-20T14:21:46;3.00;;;3.00;;
20906;SDS011;10613;50.966;5.814;2023-12-20T14:25:53;6.50;;;5.25;;
20906;SDS011;10613;50.966;5.814;2023-12-20T14:30:00;10.00;;;8.00;;
20906;SDS011;10613;50.966;5.814;2023-12-20T14:34:07;10.50;;;7.50;;
20906;SDS011;10613;50.966;5.814;2023-12-20T14:38:15;4.50;;;4.50;;
20906;SDS011;10613;50.966;5.814;2023-12-20T14:42:22;5.50;;;5.50;;
20906;SDS011;10613;50.966;5.814;2023-12-20T14:46:29;6.75;;;5.75;;
20906;SDS011;10613;50.966;5.814;2023-12-20T14:50:36;7.50;;;7.00;;
20906;SDS011;10613;50.966;5.814;2023-12-20T14:54:43;5.00;;;5.00;;
20906;SDS011;10613;50.966;5.814;2023-12-20T14:58:50;8.00;;;8.00;;
20906;SDS011;10613;50.966;5.814;2023-12-20T15:02:57;8.00;;;8.00;;
20906;SDS011;10613;50.966;5.814;2023-12-20T15:07:04;5.75;;;5.75;;
20906;SDS011;10613;50.966;5.814;2023-12-20T15:11:13;5.25;;;5.25;;
20906;SDS011;10613;50.966;5.814;2023-12-20T15:15:20;5.25;;;5.25;;
20906;SDS011;10613;50.966;5.814;2023-12-20T15:19:27;5.00;;;5.00;;
20906;SDS011;10613;50.966;5.814;2023-12-20T15:23:34;6.50;;;6.50;;
20906;SDS011;10613;50.966;5.814;2023-12-20T15:27:41;5.50;;;5.50;;
20906;SDS011;10613;50.966;5.814;2023-12-20T15:31:48;8.00;;;8.00;;
20906;SDS011;10613;50.966;5.814;2023-12-20T15:35:55;5.00;;;5.00;;
20906;SDS011;10613;50.966;5.814;2023-12-20T15:40:02;5.50;;;3.50;;
20906;SDS011;10613;50.966;5.814;2023-12-20T15:44:09;8.00;;;5.00;;
20906;SDS011;10613;50.966;5.814;2023-12-20T15:48:16;3.00;;;3.00;;
20906;SDS011;10613;50.966;5.814;2023-12-20T15:52:25;5.50;;;5.50;;
20906;SDS011;10613;50.966;5.814;2023-12-20T15:56:33;8.50;;;6.00;;
20906;SDS011;10613;50.966;5.814;2023-12-20T16:00:40;5.25;;;5.25;;
20906;SDS011;10613;50.966;5.814;2023-12-20T16:04:47;8.00;;;8.00;;
20906;SDS011;10613;50.966;5.814;2023-12-20T16:08:54;10.50;;;10.00;;
20906;SDS011;10613;50.966;5.814;2023-12-20T16:13:01;9.50;;;7.50;;
20906;SDS011;10613;50.966;5.814;2023-12-20T16:17:08;7.00;;;7.00;;
20906;SDS011;10613;50.966;5.814;2023-12-20T16:21:15;10.25;;;8.00;;
20906;SDS011;10613;50.966;5.814;2023-12-20T16:25:22;7.50;;;7.50;;
20906;SDS011;10613;50.966;5.814;2023-12-20T16:29:36;6.00;;;6.00;;
20906;SDS011;10613;50.966;5.814;2023-12-20T16:33:43;9.00;;;9.00;;
20906;SDS011;10613;50.966;5.814;2023-12-20T16:37:50;20.75;;;18.50;;
20906;SDS011;10613;50.966;5.814;2023-12-20T16:41:57;15.00;;;13.00;;
20906;SDS011;10613;50.966;5.814;2023-12-20T16:46:04;21.25;;;20.25;;
20906;SDS011;10613;50.966;5.814;2023-12-20T16:50:11;12.00;;;10.00;;
20906;SDS011;10613;50.966;5.814;2023-12-20T16:54:18;9.75;;;8.00;;
20906;SDS011;10613;50.966;5.814;2023-12-20T16:58:25;21.00;;;17.00;;
20906;SDS011;10613;50.966;5.814;2023-12-20T17:02:32;16.00;;;16.00;;
20906;SDS011;10613;50.966;5.814;2023-12-20T17:06:39;14.50;;;14.50;;
20906;SDS011;10613;50.966;5.814;2023-12-20T17:10:46;10.75;;;10.75;;
20906;SDS011;10613;50.966;5.814;2023-12-20T17:14:53;19.00;;;17.00;;
20906;SDS011;10613;50.966;5.814;2023-12-20T17:19:00;24.00;;;21.00;;
20906;SDS011;10613;50.966;5.814;2023-12-20T17:23:07;16.75;;;14.00;;
20906;SDS011;10613;50.966;5.814;2023-12-20T17:27:14;10.00;;;10.00;;
20906;SDS011;10613;50.966;5.814;2023-12-20T17:31:21;8.00;;;8.00;;
20906;SDS011;10613;50.966;5.814;2023-12-20T17:35:28;9.25;;;9.25;;
20906;SDS011;10613;50.966;5.814;2023-12-20T17:39:35;8.75;;;8.75;;
20906;SDS011;10613;50.966;5.814;2023-12-20T17:43:42;11.50;;;11.50;;
20906;SDS011;10613;50.966;5.814;2023-12-20T17:47:49;9.25;;;9.25;;
20906;SDS011;10613;50.966;5.814;2023-12-20T17:51:56;9.50;;;9.25;;
20906;SDS011;10613;50.966;5.814;2023-12-20T17:56:03;10.00;;;10.00;;
20906;SDS011;10613;50.966;5.814;2023-12-20T18:00:14;10.25;;;10.25;;
20906;SDS011;10613;50.966;5.814;2023-12-20T18:04:22;7.00;;;7.00;;
20906;SDS011;10613;50.966;5.814;2023-12-20T18:08:31;14.50;;;14.50;;
20906;SDS011;10613;50.966;5.814;2023-12-20T18:12:38;10.50;;;8.25;;
20906;SDS011;10613;50.966;5.814;2023-12-20T18:16:45;14.00;;;14.00;;
20906;SDS011;10613;50.966;5.814;2023-12-20T18:20:52;18.25;;;18.25;;
20906;SDS011;10613;50.966;5.814;2023-12-20T18:25:00;19.50;;;15.00;;
20906;SDS011;10613;50.966;5.814;2023-12-20T18:29:07;13.50;;;12.00;;
20906;SDS011;10613;50.966;5.814;2023-12-20T18:33:14;12.00;;;12.00;;
20906;SDS011;10613;50.966;5.814;2023-12-20T18:37:21;10.75;;;10.00;;
20906;SDS011;10613;50.966;5.814;2023-12-20T18:41:28;12.75;;;12.75;;
20906;SDS011;10613;50.966;5.814;2023-12-20T18:45:35;9.50;;;9.50;;
20906;SDS011;10613;50.966;5.814;2023-12-20T18:49:42;18.00;;;12.00;;
20906;SDS011;10613;50.966;5.814;2023-12-20T18:53:49;19.00;;;15.25;;
20906;SDS011;10613;50.966;5.814;2023-12-20T18:57:57;13.75;;;11.00;;
20906;SDS011;10613;50.966;5.814;2023-12-20T19:02:04;11.00;;;11.00;;
20906;SDS011;10613;50.966;5.814;2023-12-20T19:06:14;12.00;;;11.50;;
20906;SDS011;10613;50.966;5.814;2023-12-20T19:10:21;12.50;;;11.00;;
20906;SDS011;10613;50.966;5.814;2023-12-20T19:14:28;9.75;;;9.75;;
20906;SDS011;10613;50.966;5.814;2023-12-20T19:18:35;10.50;;;10.50;;
20906;SDS011;10613;50.966;5.814;2023-12-20T19:22:42;10.75;;;7.75;;
20906;SDS011;10613;50.966;5.814;2023-12-20T19:26:49;8.00;;;8.00;;
20906;SDS011;10613;50.966;5.814;2023-12-20T19:30:56;10.50;;;9.00;;
20906;SDS011;10613;50.966;5.814;2023-12-20T19:35:07;9.25;;;7.75;;
20906;SDS011;10613;50.966;5.814;2023-12-20T19:39:14;15.25;;;13.00;;
20906;SDS011;10613;50.966;5.814;2023-12-20T19:43:21;8.00;;;8.00;;
20906;SDS011;10613;50.966;5.814;2023-12-20T19:47:35;8.50;;;8.50;;
20906;SDS011;10613;50.966;5.814;2023-12-20T19:51:42;8.50;;;8.50;;
20906;SDS011;10613;50.966;5.814;2023-12-20T19:55:56;7.00;;;7.00;;
20906;SDS011;10613;50.966;5.814;2023-12-20T20:00:03;7.50;;;7.50;;
20906;SDS011;10613;50.966;5.814;2023-12-20T20:04:13;8.00;;;8.00;;
20906;SDS011;10613;50.966;5.814;2023-12-20T20:08:22;9.00;;;8.00;;
20906;SDS011;10613;50.966;5.814;2023-12-20T20:12:30;6.00;;;6.00;;
20906;SDS011;10613;50.966;5.814;2023-12-20T20:16:39;7.00;;;7.00;;
20906;SDS011;10613;50.966;5.814;2023-12-20T20:20:46;8.00;;;8.00;;
20906;SDS011;10613;50.966;5.814;2023-12-20T20:24:53;4.00;;;4.00;;
20906;SDS011;10613;50.966;5.814;2023-12-20T20:29:00;8.00;;;8.00;;
20906;SDS011;10613;50.966;5.814;2023-12-20T20:33:07;8.00;;;8.00;;
20906;SDS011;10613;50.966;5.814;2023-12-20T20:37:14;7.00;;;7.00;;
20906;SDS011;10613;50.966;5.814;2023-12-20T20:41:21;6.50;;;6.00;;
20906;SDS011;10613;50.966;5.814;2023-12-20T20:45:28;4.00;;;4.00;;
20906;SDS011;10613;50.966;5.814;2023-12-20T20:49:35;8.00;;;6.00;;
20906;SDS011;10613;50.966;5.814;2023-12-20T20:53:42;6.00;;;6.00;;
20906;SDS011;10613;50.966;5.814;2023-12-20T20:57:49;6.50;;;6.00;;
20906;SDS011;10613;50.966;5.814;2023-12-20T21:01:57;4.75;;;4.75;;
20906;SDS011;10613;50.966;5.814;2023-12-20T21:06:04;5.00;;;5.00;;
20906;SDS011;10613;50.966;5.814;2023-12-20T21:10:11;7.50;;;7.50;;
20906;SDS011;10613;50.966;5.814;2023-12-20T21:14:18;7.00;;;4.25;;
20906;SDS011;10613;50.966;5.814;2023-12-20T21:18:25;6.00;;;6.00;;
20906;SDS011;10613;50.966;5.814;2023-12-20T21:22:33;4.00;;;4.00;;
20906;SDS011;10613;50.966;5.814;2023-12-20T21:26:41;8.00;;;6.00;;
20906;SDS011;10613;50.966;5.814;2023-12-20T21:30:48;6.50;;;5.00;;
20906;SDS011;10613;50.966;5.814;2023-12-20T21:34:55;5.50;;;5.00;;
20906;SDS011;10613;50.966;5.814;2023-12-20T21:39:03;9.50;;;7.50;;
20906;SDS011;10613;50.966;5.814;2023-12-20T21:43:09;8.75;;;7.00;;
20906;SDS011;10613;50.966;5.814;2023-12-20T21:47:16;5.25;;;5.25;;
20906;SDS011;10613;50.966;5.814;2023-12-20T21:51:23;9.00;;;7.00;;
20906;SDS011;10613;50.966;5.814;2023-12-20T21:55:30;7.50;;;4.00;;
20906;SDS011;10613;50.966;5.814;2023-12-20T21:59:37;5.50;;;4.00;;
20906;SDS011;10613;50.966;5.814;2023-12-20T22:03:44;4.75;;;4.75;;
20906;SDS011;10613;50.966;5.814;2023-12-20T22:07:51;5.50;;;4.25;;
20906;SDS011;10613;50.966;5.814;2023-12-20T22:11:58;8.75;;;7.00;;
20906;SDS011;10613;50.966;5.814;2023-12-20T22:16:06;8.75;;;8.75;;
20906;SDS011;10613;50.966;5.814;2023-12-20T22:20:13;4.00;;;4.00;;
20906;SDS011;10613;50.966;5.814;2023-12-20T22:24:20;8.00;;;4.00;;
20906;SDS011;10613;50.966;5.814;2023-12-20T22:28:34;6.00;;;6.00;;
20906;SDS011;10613;50.966;5.814;2023-12-20T22:32:41;6.50;;;6.50;;
20906;SDS011;10613;50.966;5.814;2023-12-20T22:36:48;6.00;;;6.00;;
20906;SDS011;10613;50.966;5.814;2023-12-20T22:40:56;5.25;;;5.25;;
20906;SDS011;10613;50.966;5.814;2023-12-20T22:45:03;3.75;;;3.75;;
20906;SDS011;10613;50.966;5.814;2023-12-20T22:49:10;6.00;;;6.00;;
20906;SDS011;10613;50.966;5.814;2023-12-20T22:53:17;6.00;;;6.00;;
20906;SDS011;10613;50.966;5.814;2023-12-20T22:57:24;6.00;;;4.00;;
20906;SDS011;10613;50.966;5.814;2023-12-20T23:01:31;4.00;;;4.00;;
20906;SDS011;10613;50.966;5.814;2023-12-20T23:05:38;6.00;;;6.00;;
20906;SDS011;10613;50.966;5.814;2023-12-20T23:09:45;6.00;;;4.00;;
20906;SDS011;10613;50.966;5.814;2023-12-20T23:13:52;6.00;;;6.00;;
20906;SDS011;10613;50.966;5.814;2023-12-20T23:17:59;4.50;;;4.50;;
20906;SDS011;10613;50.966;5.814;2023-12-20T23:22:06;7.00;;;4.00;;
20906;SDS011;10613;50.966;5.814;2023-12-20T23:26:13;5.00;;;4.00;;
20906;SDS011;10613;50.966;5.814;2023-12-20T23:30:20;7.50;;;6.00;;
20906;SDS011;10613;50.966;5.814;2023-12-20T23:34:27;5.50;;;4.00;;
20906;SDS011;10613;50.966;5.814;2023-12-20T23:38:34;4.00;;;4.00;;
20906;SDS011;10613;50.966;5.814;2023-12-20T23:42:41;9.50;;;6.00;;
20906;SDS011;10613;50.966;5.814;2023-12-20T23:46:49;7.00;;;7.00;;
20906;SDS011;10613;50.966;5.814;2023-12-20T23:50:56;3.00;;;3.00;;
20906;SDS011;10613;50.966;5.814;2023-12-20T23:55:04;8.00;;;6.00;;
20906;SDS011;10613;50.966;5.814;2023-12-20T23:59:17;4.00;;;4.00;;
